Time;durP1;ratioP1;P1;durP2;ratioP2;P2;SDS_P1;SDS_P2;PMS_P1;PMS_P2;Temp;Humidity;BMP_temperature;BMP_pressure;BME280_temperature;BME280_humidity;BME280_pressure;Samples;Min_cycle;Max_cycle;Signal;HPM_P1;HPM_P2
2021/01/21 00:00:23;;;;;;;154.93;74.37;;;;;;;-1.93;84.55;97311.05;1772568;81;21127;-75
2021/01/21 00:02:51;;;;;;;118.93;56.83;;;;;;;-1.99;84.22;97310.06;1772704;79;21194;-75
2021/01/21 00:05:17;;;;;;;104.70;47.70;;;;;;;-2.05;84.44;97314.41;1772559;80;21119;-75
2021/01/21 00:07:43;;;;;;;99.58;48.95;;;;;;;-2.05;84.49;97310.43;1772508;79;21114;-75
2021/01/21 00:10:10;;;;;;;104.07;47.98;;;;;;;-2.06;84.48;97314.09;1772662;80;21198;-76
2021/01/21 00:12:37;;;;;;;103.67;53.25;;;;;;;-2.10;84.35;97305.46;1772428;79;21115;-75
2021/01/21 00:15:05;;;;;;;141.75;68.28;;;;;;;-2.15;84.08;97304.77;1772609;81;21575;-75
2021/01/21 00:17:31;;;;;;;128.27;60.65;;;;;;;-2.12;84.19;97301.70;1772521;79;21118;-76
2021/01/21 00:19:57;;;;;;;100.15;48.75;;;;;;;-2.14;84.48;97293.12;1772540;80;21147;-75
2021/01/21 00:22:23;;;;;;;124.50;57.85;;;;;;;-2.17;84.21;97289.58;1772495;80;21190;-76
2021/01/21 00:24:49;;;;;;;125.55;60.28;;;;;;;-2.32;85.67;97293.87;1766692;79;21119;-76
2021/01/21 00:27:16;;;;;;;108.92;56.10;;;;;;;-2.27;84.93;97303.33;1766353;81;21123;-76
2021/01/21 00:29:42;;;;;;;119.45;59.42;;;;;;;-2.24;84.79;97298.62;1766199;79;21115;-76
2021/01/21 00:32:08;;;;;;;95.03;51.13;;;;;;;-2.30;84.38;97297.66;1766328;81;21579;-76
2021/01/21 00:34:34;;;;;;;88.92;50.48;;;;;;;-2.27;85.17;97291.39;1766215;79;21200;-76
2021/01/21 00:37:00;;;;;;;99.90;52.50;;;;;;;-2.21;84.97;97296.36;1766252;80;21143;-76
2021/01/21 00:39:27;;;;;;;81.57;43.00;;;;;;;-2.17;84.47;97292.23;1766241;79;21016;-76
2021/01/21 00:41:53;;;;;;;79.80;38.53;;;;;;;-2.24;84.70;97292.79;1766276;81;21607;-75
2021/01/21 00:44:19;;;;;;;79.50;41.63;;;;;;;-2.27;84.74;97291.91;1766321;79;21107;-76
2021/01/21 00:46:45;;;;;;;71.07;35.10;;;;;;;-2.28;84.15;97290.28;1766288;81;21234;-76
2021/01/21 00:49:11;;;;;;;84.42;40.08;;;;;;;-2.32;83.91;97287.75;1766159;79;21071;-76
2021/01/21 00:51:37;;;;;;;77.03;39.38;;;;;;;-2.41;84.17;97287.20;1766329;80;21442;-75
2021/01/21 00:54:03;;;;;;;71.50;38.60;;;;;;;-2.36;84.08;97290.03;1766289;79;21503;-75
2021/01/21 00:56:30;;;;;;;80.17;37.93;;;;;;;-2.35;84.09;97286.34;1766266;81;21130;-76
2021/01/21 00:58:56;;;;;;;75.55;39.48;;;;;;;-2.39;84.16;97286.49;1766205;79;21187;-76
2021/01/21 01:01:22;;;;;;;72.42;37.63;;;;;;;-2.41;84.01;97280.56;1766180;81;21178;-76
2021/01/21 01:03:48;;;;;;;59.77;32.10;;;;;;;-2.39;84.69;97275.88;1766141;79;21143;-76
2021/01/21 01:06:14;;;;;;;81.37;41.65;;;;;;;-2.40;85.13;97267.59;1766311;81;21147;-76
2021/01/21 01:08:40;;;;;;;61.50;31.68;;;;;;;-2.36;84.54;97274.11;1766222;79;21110;-76
2021/01/21 01:11:07;;;;;;;67.17;30.95;;;;;;;-2.39;84.76;97269.76;1766265;81;21199;-76
2021/01/21 01:13:33;;;;;;;64.97;32.05;;;;;;;-2.45;84.14;97274.08;1766132;79;21079;-75
2021/01/21 01:15:59;;;;;;;73.80;32.60;;;;;;;-2.48;83.93;97265.20;1766350;81;21162;-76
2021/01/21 01:18:25;;;;;;;62.30;32.00;;;;;;;-2.52;83.95;97257.38;1766207;79;21023;-76
2021/01/21 01:20:51;;;;;;;69.32;36.23;;;;;;;-2.57;83.77;97265.97;1766354;80;21575;-75
2021/01/21 01:23:17;;;;;;;80.40;38.65;;;;;;;-2.59;83.73;97260.59;1768917;79;21310;-76
2021/01/21 01:25:44;;;;;;;70.37;34.40;;;;;;;-2.59;83.90;97249.46;1754521;80;21538;-76
2021/01/21 01:28:10;;;;;;;72.05;38.17;;;;;;;-2.53;84.14;97253.62;1783184;79;21101;-76
2021/01/21 01:30:36;;;;;;;80.17;35.55;;;;;;;-2.49;84.19;97248.17;1783272;80;21546;-76
2021/01/21 01:33:02;;;;;;;71.42;35.75;;;;;;;-2.49;83.96;97245.52;1783274;79;21098;-74
2021/01/21 01:35:28;;;;;;;64.70;31.52;;;;;;;-2.44;84.07;97245.19;1783250;80;21265;-74
2021/01/21 01:37:54;;;;;;;60.38;32.00;;;;;;;-2.38;84.26;97241.67;1783226;79;21027;-74
2021/01/21 01:40:20;;;;;;;64.45;31.62;;;;;;;-2.36;83.91;97246.77;1783190;80;21134;-74
2021/01/21 01:42:47;;;;;;;49.70;27.02;;;;;;;-2.39;83.85;97243.22;1783133;79;21122;-74
2021/01/21 01:45:14;;;;;;;59.40;27.48;;;;;;;-2.41;83.83;97244.74;1783224;80;21047;-74
2021/01/21 01:47:43;;;;;;;75.75;33.98;;;;;;;-2.46;83.52;97239.28;1754334;79;23150;-74
2021/01/21 01:50:10;;;;;;;100.55;44.30;;;;;;;-2.47;83.70;97240.32;1783118;80;21107;-75
2021/01/21 01:52:43;;;;;;;100.75;44.77;;;;;;;-2.50;83.83;97243.90;1783237;79;21115;-75
2021/01/21 01:55:18;;;;;;;141.20;64.40;;;;;;;-2.51;84.25;97237.78;1783184;80;21507;-75
2021/01/21 01:57:51;;;;;;;110.52;48.28;;;;;;;-2.50;83.70;97235.42;1783207;79;21079;-74
2021/01/21 02:00:18;;;;;;;108.50;53.05;;;;;;;-2.63;83.68;97233.70;1755949;80;21086;-75
2021/01/21 02:02:50;;;;;;;83.72;40.20;;;;;;;-2.64;83.81;97238.70;1754762;79;21070;-75
2021/01/21 02:05:18;;;;;;;92.42;48.25;;;;;;;-2.71;83.41;97237.93;1783180;80;21035;-75
2021/01/21 02:07:44;;;;;;;122.30;57.30;;;;;;;-2.80;83.29;97236.56;1783240;79;21515;-75
2021/01/21 02:10:12;;;;;;;89.37;44.55;;;;;;;-2.75;83.78;97244.67;1783249;80;21106;-74
2021/01/21 02:13:09;;;;;;;98.27;50.50;;;;;;;-2.79;83.64;97236.05;1783430;79;21402;-75
2021/01/21 02:15:58;;;;;;;96.22;45.03;;;;;;;-2.86;83.92;97234.24;1783240;80;21735;-75
2021/01/21 02:18:42;;;;;;;91.53;42.03;;;;;;;-2.89;85.25;97232.03;1783312;79;24949;-74
2021/01/21 02:21:52;;;;;;;57.65;30.17;;;;;;;-2.82;84.34;97239.11;1783287;79;21126;-75
2021/01/21 02:24:30;;;;;;;64.10;33.28;;;;;;;-2.84;84.41;97236.67;1783137;79;21101;-75
2021/01/21 02:26:58;;;;;;;60.15;28.35;;;;;;;-2.82;84.44;97234.61;1783074;80;21407;-75
2021/01/21 02:29:33;;;;;;;48.65;23.00;;;;;;;-2.84;83.89;97229.53;1755397;80;21027;-75
2021/01/21 02:32:20;;;;;;;103.72;48.55;;;;;;;-2.93;84.03;97237.44;1783241;80;21114;-75
2021/01/21 02:35:09;;;;;;;98.05;45.38;;;;;;;-2.95;84.28;97243.98;1782327;79;21437;-75
2021/01/21 02:37:37;;;;;;;81.57;43.15;;;;;;;-2.93;85.70;97237.95;1783205;79;21496;-75
2021/01/21 02:40:05;;;;;;;75.30;39.50;;;;;;;-2.80;85.28;97234.42;1783129;80;21184;-75
2021/01/21 02:42:48;;;;;;;64.45;33.40;;;;;;;-2.74;84.96;97238.34;1783290;79;21086;-75
2021/01/21 02:45:14;;;;;;;60.60;32.83;;;;;;;-2.69;84.69;97236.38;1782720;80;21051;-75
2021/01/21 02:47:41;;;;;;;68.67;35.23;;;;;;;-2.64;84.51;97234.72;1754864;79;21543;-75
2021/01/21 02:50:09;;;;;;;65.08;33.30;;;;;;;-2.65;84.13;97230.45;1783326;80;21023;-75
2021/01/21 02:52:43;;;;;;;69.58;34.08;;;;;;;-2.70;84.03;97225.48;1783401;79;21459;-75
2021/01/21 02:55:25;;;;;;;75.83;39.40;;;;;;;-2.82;83.78;97234.61;1783130;80;21125;-75
2021/01/21 02:58:07;;;;;;;88.85;44.25;;;;;;;-2.86;83.97;97230.27;1783355;79;21182;-74
2021/01/21 03:00:34;;;;;;;64.20;31.23;;;;;;;-2.87;84.08;97237.92;1783272;80;21027;-74
2021/01/21 03:03:01;;;;;;;80.05;40.23;;;;;;;-2.91;83.82;97226.61;1783316;79;21099;-75
2021/01/21 03:05:28;;;;;;;67.90;33.85;;;;;;;-2.95;84.06;97230.73;1783326;80;22089;-75
2021/01/21 03:07:54;;;;;;;57.85;29.18;;;;;;;-2.88;84.19;97226.20;1783263;79;21047;-75
2021/01/21 03:10:20;;;;;;;61.63;34.27;;;;;;;-2.96;85.40;97220.64;1783366;80;21538;-75
2021/01/21 03:12:57;;;;;;;61.90;32.17;;;;;;;-2.87;84.63;97227.31;1783344;79;21141;-74
2021/01/21 03:15:26;;;;;;;55.10;31.97;;;;;;;-2.82;85.08;97236.45;1783310;80;21032;-75
2021/01/21 03:17:52;;;;;;;;;;;;;;;-2.76;84.74;97243.05;1785962;79;21570;-75
2021/01/21 03:20:19;;;;;;;42.62;20.35;;;;;;;-2.73;85.93;97241.83;1783266;80;20266;-75
2021/01/21 03:22:45;;;;;;;40.30;20.97;;;;;;;-2.69;84.98;97237.20;1783230;79;21114;-75
2021/01/21 03:25:11;;;;;;;25.88;13.95;;;;;;;-2.62;86.72;97228.69;1775689;79;21523;-74
2021/01/21 03:27:37;;;;;;;43.50;22.50;;;;;;;-2.60;84.97;97233.25;1772559;79;21139;-75
2021/01/21 03:30:05;;;;;;;33.13;19.07;;;;;;;-2.66;85.48;97238.08;1772609;81;22040;-75
2021/01/21 03:32:32;;;;;;;47.48;24.63;;;;;;;-2.65;85.48;97240.22;1772573;79;21102;-75
2021/01/21 03:34:59;;;;;;;56.83;30.08;;;;;;;-2.64;84.84;97234.72;1772486;81;21106;-75
2021/01/21 03:37:25;;;;;;;61.65;29.07;;;;;;;-2.70;85.40;97232.92;1772551;80;21150;-75
2021/01/21 03:39:51;;;;;;;64.80;30.72;;;;;;;-2.65;84.95;97230.94;1772601;79;21500;-75
2021/01/21 03:42:17;;;;;;;67.45;33.83;;;;;;;-2.61;84.77;97235.61;1772639;81;22054;-74
2021/01/21 03:44:43;;;;;;;78.25;38.55;;;;;;;-2.69;84.69;97222.61;1772394;79;21036;-74
2021/01/21 03:47:09;;;;;;;77.10;38.80;;;;;;;-2.69;84.74;97228.42;1772649;80;21141;-75
2021/01/21 03:49:36;;;;;;;75.50;36.30;;;;;;;-2.71;84.78;97226.52;1772548;79;21119;-75
2021/01/21 03:52:02;;;;;;;56.18;27.17;;;;;;;-2.72;84.94;97223.05;1772602;81;21563;-75
2021/01/21 03:54:28;;;;;;;47.80;26.55;;;;;;;-2.69;84.63;97225.78;1744457;81;21947;-75
2021/01/21 03:56:55;;;;;;;46.15;22.90;;;;;;;-2.67;84.62;97219.73;1772578;81;21138;-74
2021/01/21 03:59:21;;;;;;;55.10;28.10;;;;;;;-2.67;84.65;97215.76;1772511;79;21170;-75
2021/01/21 04:01:47;;;;;;;47.23;24.67;;;;;;;-2.63;84.57;97216.97;1772607;80;21590;-74
2021/01/21 04:04:13;;;;;;;69.00;36.38;;;;;;;-2.68;84.20;97201.69;1772480;79;21044;-75
2021/01/21 04:06:39;;;;;;;65.00;29.82;;;;;;;-2.69;84.33;97212.52;1772611;81;21241;-75
2021/01/21 04:09:06;;;;;;;76.37;35.95;;;;;;;-2.69;84.43;97203.23;1744401;81;21027;-74
2021/01/21 04:11:32;;;;;;;46.15;24.95;;;;;;;-2.79;84.23;97205.55;1772618;80;21178;-75
2021/01/21 04:13:58;;;;;;;45.55;23.35;;;;;;;-2.84;84.38;97203.02;1772486;79;21142;-75
2021/01/21 04:16:25;;;;;;;49.13;25.23;;;;;;;-2.86;84.21;97198.45;1772540;80;21583;-75
2021/01/21 04:18:51;;;;;;;56.60;28.47;;;;;;;-2.82;84.33;97201.47;1772472;79;21184;-75
2021/01/21 04:21:17;;;;;;;54.83;27.60;;;;;;;-2.82;84.37;97199.33;1772487;80;21559;-75
2021/01/21 04:23:43;;;;;;;91.75;42.58;;;;;;;-2.75;84.53;97198.27;1772472;79;21039;-75
2021/01/21 04:26:09;;;;;;;60.50;29.50;;;;;;;-2.66;84.47;97200.14;1766222;80;21093;-74
2021/01/21 04:28:36;;;;;;;65.90;30.97;;;;;;;-2.71;84.26;97199.98;1766284;79;21401;-74
2021/01/21 04:31:02;;;;;;;57.30;29.30;;;;;;;-2.67;84.38;97199.84;1766305;81;21267;-75
2021/01/21 04:33:28;;;;;;;68.60;31.48;;;;;;;-2.66;84.11;97200.95;1766189;79;21123;-75
2021/01/21 04:35:55;;;;;;;105.47;48.42;;;;;;;-2.81;83.81;97197.81;1766254;80;21036;-75
2021/01/21 04:38:21;;;;;;;102.12;48.28;;;;;;;-2.94;83.95;97197.89;1766352;79;21079;-75
2021/01/21 04:40:47;;;;;;;104.65;50.30;;;;;;;-2.94;84.25;97208.49;1766239;81;21016;-75
2021/01/21 04:43:13;;;;;;;95.35;49.85;;;;;;;-3.02;84.58;97202.12;1766305;79;21966;-75
2021/01/21 04:45:40;;;;;;;95.92;52.35;;;;;;;-2.98;84.46;97202.02;1766129;81;21079;-75
2021/01/21 04:48:07;;;;;;;228.20;91.57;;;;;;;-2.97;84.54;97204.95;1766228;79;21056;-75
2021/01/21 04:50:34;;;;;;;106.15;45.20;;;;;;;-2.90;84.74;97201.75;1766188;81;21023;-74
2021/01/21 04:53:00;;;;;;;83.75;38.53;;;;;;;-2.92;84.33;97200.62;1766284;79;21096;-75
2021/01/21 04:55:30;;;;;;;82.92;43.38;;;;;;;-2.94;84.08;97200.55;1766224;81;21131;-75
2021/01/21 04:58:23;;;;;;;105.20;51.33;;;;;;;-3.03;83.99;97209.26;1766320;79;21052;-75
2021/01/21 05:00:49;;;;;;;66.70;33.48;;;;;;;-3.06;83.83;97209.70;1766230;81;21083;-75
2021/01/21 05:03:16;;;;;;;69.12;34.35;;;;;;;-3.12;83.92;97206.56;1766208;79;21052;-75
2021/01/21 05:05:42;;;;;;;57.48;30.68;;;;;;;-3.16;83.95;97201.41;1766190;81;21485;-75
2021/01/21 05:08:08;;;;;;;56.80;32.10;;;;;;;-3.25;83.79;97206.10;1766213;79;21249;-74
2021/01/21 05:10:34;;;;;;;69.35;36.90;;;;;;;-3.24;83.89;97206.95;1744735;81;21048;-74
2021/01/21 05:13:00;;;;;;;85.15;38.98;;;;;;;-3.24;84.42;97208.27;1744840;81;21071;-74
2021/01/21 05:15:27;;;;;;;88.87;43.70;;;;;;;-3.28;84.18;97201.75;1766180;81;21024;-74
2021/01/21 05:17:53;;;;;;;96.20;44.65;;;;;;;-3.32;83.87;97201.89;1766274;79;21417;-74
2021/01/21 05:20:23;;;;;;;101.87;45.35;;;;;;;-3.35;83.69;97193.02;1766291;81;21199;-74
2021/01/21 05:22:56;;;;;;;103.00;41.02;;;;;;;-3.39;83.71;97204.56;1766156;79;21674;-75
2021/01/21 05:25:22;;;;;;;102.10;43.92;;;;;;;-3.44;84.35;97205.18;1766199;80;21044;-76
2021/01/21 05:27:48;;;;;;;106.63;46.45;;;;;;;-3.44;84.03;97199.07;1766208;79;21201;-75
2021/01/21 05:30:16;;;;;;;168.43;73.42;;;;;;;-3.56;83.70;97196.80;1766175;81;21012;-75
2021/01/21 05:32:42;;;;;;;113.83;50.48;;;;;;;-3.52;83.75;97208.58;1766265;79;21401;-75
2021/01/21 05:35:12;;;;;;;149.23;64.62;;;;;;;-3.57;83.62;97199.95;1703890;81;21527;-76
2021/01/21 05:37:39;;;;;;;164.95;80.65;;;;;;;-3.52;83.88;97194.82;1766154;79;21168;-76
2021/01/21 05:40:08;;;;;;;124.90;61.88;;;;;;;-3.55;84.27;97207.69;1766177;81;21032;-76
2021/01/21 05:42:37;;;;;;;226.47;102.53;;;;;;;-3.58;84.85;97198.33;1744799;79;21115;-76
2021/01/21 05:45:05;;;;;;;299.90;134.12;;;;;;;-3.52;84.44;97197.98;1766020;81;21204;-75
2021/01/21 05:47:31;;;;;;;278.13;123.50;;;;;;;-3.45;84.52;97198.77;1766370;79;21103;-76
2021/01/21 05:49:57;;;;;;;308.65;153.10;;;;;;;-3.47;83.94;97210.91;1766133;81;21028;-76
2021/01/21 05:52:25;;;;;;;274.25;133.90;;;;;;;-3.44;83.96;97217.10;1766158;81;21186;-75
2021/01/21 05:54:51;;;;;;;256.77;125.45;;;;;;;-3.44;84.05;97217.10;1766163;80;21111;-75
2021/01/21 05:57:17;;;;;;;214.95;99.77;;;;;;;-3.52;84.56;97221.82;1745039;81;21308;-76
2021/01/21 05:59:44;;;;;;;128.93;60.63;;;;;;;-3.51;84.31;97222.93;1744785;81;21393;-75
2021/01/21 06:02:10;;;;;;;181.05;80.83;;;;;;;-3.56;84.78;97208.71;1766209;81;21151;-75
2021/01/21 06:04:36;;;;;;;202.25;88.80;;;;;;;-3.52;84.51;97209.91;1766144;79;21623;-76
2021/01/21 06:07:03;;;;;;;197.37;84.45;;;;;;;-3.52;85.09;97212.55;1766313;80;21559;-75
2021/01/21 06:09:30;;;;;;;232.50;103.25;;;;;;;-3.46;84.86;97207.23;1766218;79;21193;-76
2021/01/21 06:12:00;;;;;;;275.90;126.35;;;;;;;-3.38;84.62;97215.45;1766133;81;21080;-76
2021/01/21 06:14:26;;;;;;;132.45;64.65;;;;;;;-3.34;84.29;97214.52;1766150;79;21040;-74
2021/01/21 06:16:53;;;;;;;185.63;88.58;;;;;;;-3.38;86.90;97198.75;1766186;80;21500;-74
2021/01/21 06:19:19;;;;;;;271.37;119.93;;;;;;;-3.33;85.73;97221.43;1766203;79;21056;-74
2021/01/21 06:21:56;;;;;;;216.38;94.05;;;;;;;-3.30;85.15;97202.48;1766156;81;21205;-74
2021/01/21 06:24:27;;;;;;;188.40;86.78;;;;;;;-3.33;85.97;97207.70;1766028;79;21500;-75
2021/01/21 06:26:53;;;;;;;190.68;88.10;;;;;;;-3.30;85.14;97206.45;1766231;80;21107;-75
2021/01/21 06:29:19;;;;;;;162.05;75.60;;;;;;;-3.25;85.09;97216.70;1766222;79;21500;-75
2021/01/21 06:31:50;;;;;;;172.20;79.32;;;;;;;-3.27;86.59;97206.02;1766235;80;21131;-75
2021/01/21 06:34:25;;;;;;;226.58;100.30;;;;;;;-3.20;85.41;97208.95;1766253;79;22177;-74
2021/01/21 06:36:59;;;;;;;256.17;113.03;;;;;;;-3.11;84.86;97212.16;1766281;81;21107;-74
2021/01/21 06:39:58;;;;;;;272.93;119.22;;;;;;;-3.17;84.71;97211.16;1766281;79;21036;-75
2021/01/21 06:42:31;;;;;;;156.52;72.20;;;;;;;-3.17;84.53;97216.98;1765717;81;21079;-74
2021/01/21 06:44:58;;;;;;;160.97;68.52;;;;;;;-3.19;85.04;97212.41;1765520;81;21016;-75
2021/01/21 06:47:24;;;;;;;158.85;73.80;;;;;;;-3.18;84.74;97213.52;1744795;81;22177;-75
2021/01/21 06:49:57;;;;;;;128.50;65.65;;;;;;;-3.17;85.44;97211.16;1766128;79;21214;-75
2021/01/21 06:52:31;;;;;;;150.78;78.80;;;;;;;-3.09;85.07;97211.43;1766098;81;21512;-73
2021/01/21 06:54:58;;;;;;;154.10;76.00;;;;;;;-3.05;84.68;97211.32;1745453;81;21039;-75
2021/01/21 06:57:39;;;;;;;199.30;96.90;;;;;;;-3.04;84.42;97217.43;1744823;81;21083;-75
2021/01/21 07:00:11;;;;;;;134.32;70.40;;;;;;;-2.98;84.56;97218.73;1766267;81;22033;-75
2021/01/21 07:02:47;;;;;;;146.57;69.22;;;;;;;-2.94;84.78;97211.14;1766155;79;21127;-75
2021/01/21 07:05:19;;;;;;;142.00;70.47;;;;;;;-2.85;84.53;97215.16;1766203;81;21055;-74
2021/01/21 07:08:00;;;;;;;101.40;42.15;;;;;;;-2.75;84.45;97217.34;1766147;79;21123;-75
2021/01/21 07:10:33;;;;;;;160.45;67.58;;;;;;;-2.65;84.53;97209.23;1766144;81;21040;-74
2021/01/21 07:13:04;;;;;;;150.55;68.78;;;;;;;-2.60;84.33;97215.20;1766161;79;21217;-74
2021/01/21 07:15:36;;;;;;;190.03;87.62;;;;;;;-2.66;84.70;97222.69;1766054;81;21135;-75
2021/01/21 07:18:04;;;;;;;195.05;92.25;;;;;;;-2.62;84.89;97218.59;1745956;81;21445;-75
2021/01/21 07:20:34;;;;;;;186.17;86.93;;;;;;;-2.54;84.37;97222.82;1766381;81;21087;-75
2021/01/21 07:23:07;;;;;;;219.00;102.97;;;;;;;-2.57;84.15;97228.02;1766251;79;21032;-75
2021/01/21 07:25:34;;;;;;;196.32;97.90;;;;;;;-2.67;83.96;97234.33;1745128;81;21197;-74
2021/01/21 07:28:09;;;;;;;201.40;94.97;;;;;;;-2.71;84.22;97220.69;1766118;79;21036;-74
2021/01/21 07:30:38;;;;;;;213.57;98.60;;;;;;;-2.58;84.22;97223.23;1766274;81;21032;-74
2021/01/21 07:33:23;;;;;;;194.52;91.92;;;;;;;-2.47;84.11;97215.62;1766251;79;21043;-74
2021/01/21 07:35:50;;;;;;;204.47;87.53;;;;;;;-2.33;84.13;97218.45;1766300;81;21513;-74
2021/01/21 07:38:45;;;;;;;252.10;102.78;;;;;;;-2.32;83.64;97221.41;1766304;79;21317;-75
2021/01/21 07:41:43;;;;;;;276.92;126.53;;;;;;;-2.28;83.80;97222.61;1766293;81;21115;-75
2021/01/21 07:44:12;;;;;;;245.42;111.68;;;;;;;-2.21;84.02;97216.73;1766358;79;21179;-75
2021/01/21 07:46:38;;;;;;;227.05;105.67;;;;;;;-2.04;83.86;97219.64;1744918;81;21178;-75
2021/01/21 07:49:24;;;;;;;182.78;85.22;;;;;;;-2.01;83.64;97221.33;1766321;79;21024;-75
2021/01/21 07:52:04;;;;;;;214.02;116.15;;;;;;;-1.90;83.56;97215.00;1766227;81;21196;-74
2021/01/21 07:54:44;;;;;;;250.82;118.57;;;;;;;-1.92;83.73;97213.08;1766316;79;21126;-74
2021/01/21 07:57:10;;;;;;;177.32;92.57;;;;;;;-1.86;83.50;97219.66;1766063;81;21094;-75
2021/01/21 07:59:59;;;;;;;214.72;104.45;;;;;;;-1.76;83.62;97217.82;1766290;79;21004;-75
2021/01/21 08:02:25;;;;;;;197.32;98.12;;;;;;;-1.64;83.78;97226.67;1766414;81;21103;-75
2021/01/21 08:05:00;;;;;;;201.55;99.50;;;;;;;-1.56;83.36;97217.59;1766320;79;21751;-75
2021/01/21 08:07:51;;;;;;;270.57;117.35;;;;;;;-1.60;83.15;97218.56;1766292;80;21612;-74
2021/01/21 08:10:23;;;;;;;252.60;115.80;;;;;;;-1.47;83.40;97214.93;1766310;81;21182;-75
2021/01/21 08:13:06;;;;;;;292.02;125.87;;;;;;;-1.33;83.33;97200.45;1766247;79;21623;-75
2021/01/21 08:15:33;;;;;;;277.50;120.72;;;;;;;-1.25;83.25;97202.00;1766288;81;21119;-74
2021/01/21 08:17:59;;;;;;;239.78;108.95;;;;;;;-1.12;83.37;97199.67;1766327;79;21192;-75
2021/01/21 08:20:28;;;;;;;353.98;160.97;;;;;;;-1.00;83.51;97189.91;1766307;80;21028;-74
2021/01/21 08:23:01;;;;;;;302.10;141.53;;;;;;;-0.88;83.34;97192.89;1766514;79;21445;-74
2021/01/21 08:25:44;;;;;;;337.68;159.32;;;;;;;-0.81;83.38;97190.66;1767421;80;21091;-75
2021/01/21 08:28:13;;;;;;;340.15;151.80;;;;;;;-0.68;83.29;97185.96;1772519;79;21087;-75
2021/01/21 08:30:39;;;;;;;384.30;176.35;;;;;;;-0.62;83.36;97182.36;1772664;81;21192;-75
2021/01/21 08:33:23;;;;;;;237.08;104.53;;;;;;;-0.49;83.41;97178.70;1772543;79;21421;-75
2021/01/21 08:36:01;;;;;;;628.70;282.87;;;;;;;-0.41;83.84;97173.04;1772479;81;21090;-74
2021/01/21 08:38:36;;;;;;;269.62;121.22;;;;;;;-0.34;83.86;97171.08;1772655;79;21139;-75
2021/01/21 08:41:03;;;;;;;212.63;112.52;;;;;;;-0.18;83.66;97171.41;1772618;81;21020;-75
2021/01/21 08:43:30;;;;;;;186.95;100.00;;;;;;;-0.06;83.55;97160.25;1772533;79;21504;-75
2021/01/21 08:45:56;;;;;;;128.85;59.98;;;;;;;0.04;83.49;97163.66;1772544;80;21035;-75
2021/01/21 08:48:32;;;;;;;134.37;63.33;;;;;;;0.15;83.25;97168.96;1772515;79;21035;-75
2021/01/21 08:50:59;;;;;;;165.68;75.37;;;;;;;0.19;85.12;97168.80;1772541;81;21166;-74
2021/01/21 08:53:30;;;;;;;233.13;99.83;;;;;;;0.38;84.23;97164.65;1772487;79;21012;-74
2021/01/21 08:55:57;;;;;;;224.80;104.87;;;;;;;0.53;84.01;97156.97;1772500;81;22091;-75
2021/01/21 08:58:32;;;;;;;177.07;90.28;;;;;;;0.62;83.45;97160.88;1772526;79;21019;-75
2021/01/21 09:01:10;;;;;;;97.12;49.88;;;;;;;0.61;84.27;97158.45;1772468;81;21122;-74
2021/01/21 09:03:50;;;;;;;106.87;55.30;;;;;;;0.76;83.93;97161.39;1772678;79;21012;-74
2021/01/21 09:06:19;;;;;;;192.95;82.37;;;;;;;0.82;84.63;97144.45;1772486;81;21075;-75
2021/01/21 09:08:54;;;;;;;64.50;35.03;;;;;;;1.05;84.02;97159.02;1772710;79;21252;-75
2021/01/21 09:11:39;;;;;;;91.37;45.98;;;;;;;1.26;83.70;97148.69;1772486;81;21818;-73
2021/01/21 09:14:14;;;;;;;64.42;34.43;;;;;;;1.42;83.09;97150.56;1772474;79;21044;-74
2021/01/21 09:16:51;;;;;;;48.70;25.85;;;;;;;1.58;82.85;97155.63;1772465;81;21544;-75
2021/01/21 09:19:27;;;;;;;38.20;20.17;;;;;;;1.70;82.67;97164.36;1772631;79;21004;-75
2021/01/21 09:22:05;;;;;;;40.65;21.70;;;;;;;1.86;82.39;97166.20;1770125;81;21201;-75
2021/01/21 09:24:32;;;;;;;55.12;27.90;;;;;;;1.96;82.26;97166.88;1772584;79;21488;-75
2021/01/21 09:27:13;;;;;;;60.43;30.88;;;;;;;2.08;82.55;97164.94;1772365;80;21111;-75
2021/01/21 09:29:55;;;;;;;60.75;31.90;;;;;;;2.20;82.26;97163.48;1772468;79;21056;-76
2021/01/21 09:32:30;;;;;;;64.50;30.50;;;;;;;2.33;81.94;97157.79;1772471;81;21091;-75
2021/01/21 09:35:07;;;;;;;81.17;37.93;;;;;;;2.51;81.57;97152.13;1772486;80;21191;-75
2021/01/21 09:37:37;;;;;;;91.87;44.05;;;;;;;2.70;82.35;97158.50;1772151;79;21020;-75
2021/01/21 09:40:05;;;;;;;30.45;16.87;;;;;;;2.99;81.20;97152.38;1771826;81;21087;-75
2021/01/21 09:42:31;;;;;;;72.22;37.42;;;;;;;3.52;79.94;97144.06;1772566;79;21135;-75
2021/01/21 09:44:57;;;;;;;63.50;25.82;;;;;;;3.91;76.83;97133.89;1772438;80;21146;-74
2021/01/21 09:47:24;;;;;;;17.92;10.13;;;;;;;4.26;77.94;97141.33;1772547;81;21243;-75
2021/01/21 09:49:50;;;;;;;17.42;8.73;;;;;;;4.81;76.15;97138.62;1772452;79;21753;-75
2021/01/21 09:52:16;;;;;;;17.62;9.88;;;;;;;5.26;75.90;97135.23;1772515;80;21024;-75
2021/01/21 09:54:42;;;;;;;23.32;7.97;;;;;;;5.70;74.37;97132.56;1772490;79;21495;-75
2021/01/21 09:57:08;;;;;;;9.18;4.70;;;;;;;6.01;71.69;97139.56;1772543;81;21118;-75
2021/01/21 09:59:35;;;;;;;17.82;9.68;;;;;;;6.26;69.67;97133.33;1772631;79;21333;-75
2021/01/21 10:02:01;;;;;;;11.18;6.47;;;;;;;6.52;68.61;97130.02;1772395;81;21489;-75
2021/01/21 10:04:27;;;;;;;10.55;5.62;;;;;;;6.75;67.04;97130.73;1772404;79;21048;-75
2021/01/21 10:06:53;;;;;;;10.50;5.53;;;;;;;6.98;66.06;97129.80;1772429;80;21134;-75
2021/01/21 10:09:20;;;;;;;9.70;5.90;;;;;;;7.07;65.62;97118.70;1772470;79;21100;-75
2021/01/21 10:11:46;;;;;;;7.87;4.62;;;;;;;7.14;65.52;97116.50;1772391;81;21187;-75
2021/01/21 10:14:12;;;;;;;28.20;15.53;;;;;;;7.26;65.39;97121.53;1772396;79;21063;-75
2021/01/21 10:16:38;;;;;;;5.08;3.08;;;;;;;7.28;64.41;97130.97;1772496;80;21127;-75
2021/01/21 10:19:04;;;;;;;35.33;14.20;;;;;;;7.38;63.26;97117.96;1772459;79;21409;-75
2021/01/21 10:21:31;;;;;;;16.35;6.37;;;;;;;7.45;64.80;97122.50;1772556;80;21115;-75
2021/01/21 10:23:57;;;;;;;4.60;3.00;;;;;;;7.44;61.60;97125.48;1772399;79;21196;-76
2021/01/21 10:26:24;;;;;;;25.27;13.98;;;;;;;7.47;62.73;97130.30;1770346;80;21123;-75
2021/01/21 10:28:50;;;;;;;29.60;18.67;;;;;;;7.52;61.75;97116.77;1766155;79;21840;-75
2021/01/21 10:31:16;;;;;;;16.60;11.60;;;;;;;7.64;61.27;97118.57;1744762;81;21460;-75
2021/01/21 10:33:43;;;;;;;20.55;9.08;;;;;;;7.68;62.78;97116.91;1766275;79;21052;-75
2021/01/21 10:36:10;;;;;;;67.03;25.20;;;;;;;7.71;61.59;97113.66;1766185;81;21080;-75
2021/01/21 10:38:38;;;;;;;15.10;5.90;;;;;;;7.72;61.04;97114.47;1766103;79;21023;-75
2021/01/21 10:41:06;;;;;;;26.75;11.70;;;;;;;7.79;59.83;97120.34;1766219;81;21289;-75
2021/01/21 10:43:32;;;;;;;359.40;154.20;;;;;;;7.89;59.29;97106.76;1766267;79;21557;-75
2021/01/21 10:45:58;;;;;;;23.67;11.30;;;;;;;7.93;59.05;97107.78;1766255;81;21163;-75
2021/01/21 10:48:24;;;;;;;7.58;4.58;;;;;;;7.98;57.65;97105.05;1766268;79;22120;-75
2021/01/21 10:50:50;;;;;;;7.10;3.35;;;;;;;7.99;58.60;97107.20;1766207;81;21163;-75
2021/01/21 10:53:17;;;;;;;16.37;8.88;;;;;;;8.01;58.91;97103.66;1766262;79;21036;-75
2021/01/21 10:55:43;;;;;;;8.53;4.62;;;;;;;8.00;59.08;97103.41;1766243;80;21131;-75
2021/01/21 10:58:09;;;;;;;46.50;24.85;;;;;;;8.07;57.21;97099.84;1766273;79;21096;-75
2021/01/21 11:00:35;;;;;;;5.62;3.75;;;;;;;8.05;59.24;97097.98;1766134;81;22059;-75
2021/01/21 11:03:03;;;;;;;16.55;8.28;;;;;;;7.99;58.95;97090.47;1766100;79;21071;-75
2021/01/21 11:05:29;;;;;;;85.90;28.25;;;;;;;8.05;57.93;97090.69;1766286;80;21080;-75
2021/01/21 11:07:55;;;;;;;58.48;21.33;;;;;;;8.09;58.90;97085.51;1766368;79;21020;-75
2021/01/21 11:10:21;;;;;;;13.38;5.20;;;;;;;8.13;57.15;97080.62;1766380;80;21127;-75
2021/01/21 11:12:48;;;;;;;32.65;13.78;;;;;;;8.23;55.91;97082.40;1766252;79;21250;-75
2021/01/21 11:15:16;;;;;;;40.83;17.62;;;;;;;8.24;56.59;97084.55;1766283;80;21121;-75
2021/01/21 11:17:44;;;;;;;94.32;37.80;;;;;;;8.14;57.41;97090.87;1766276;79;21028;-76
2021/01/21 11:20:14;;;;;;;11.70;4.60;;;;;;;8.10;56.90;97086.56;1766426;80;21118;-75
2021/01/21 11:22:41;;;;;;;8.88;4.87;;;;;;;8.11;57.81;97089.52;1766298;79;21096;-74
2021/01/21 11:25:08;;;;;;;4.97;2.77;;;;;;;8.20;56.50;97089.70;1766275;80;21193;-74
2021/01/21 11:27:36;;;;;;;7.45;3.22;;;;;;;8.16;56.46;97081.93;1777779;79;21036;-74